sensor_id;sensor_type;location;lat;lon;timestamp;pressure;altitude;pressure_sealevel;temperature;humidity
67052;BME280;53957;47.222;18.670;2023-04-27T00:00:06;100383.09;;;3.33;91.58
67052;BME280;53957;47.222;18.670;2023-04-27T00:03:12;100383.56;;;3.30;92.80
67052;BME280;53957;47.222;18.670;2023-04-27T00:06:15;100383.88;;;3.45;91.17
67052;BME280;53957;47.222;18.670;2023-04-27T00:09:18;100378.03;;;3.55;89.71
67052;BME280;53957;47.222;18.670;2023-04-27T00:12:22;100385.81;;;3.74;88.07
67052;BME280;53957;47.222;18.670;2023-04-27T00:15:24;100384.78;;;3.75;90.66
67052;BME280;53957;47.222;18.670;2023-04-27T00:18:28;100377.13;;;3.26;95.84
67052;BME280;53957;47.222;18.670;2023-04-27T00:21:32;100376.22;;;3.44;96.43
67052;BME280;53957;47.222;18.670;2023-04-27T00:24:35;100380.22;;;3.46;98.21
67052;BME280;53957;47.222;18.670;2023-04-27T00:27:37;100371.06;;;3.37;100.00
67052;BME280;53957;47.222;18.670;2023-04-27T00:30:41;100374.03;;;3.41;100.00
67052;BME280;53957;47.222;18.670;2023-04-27T00:33:44;100382.87;;;3.22;100.00
67052;BME280;53957;47.222;18.670;2023-04-27T00:36:50;100378.38;;;2.76;100.00
67052;BME280;53957;47.222;18.670;2023-04-27T00:39:54;100371.38;;;2.81;100.00
67052;BME280;53957;47.222;18.670;2023-04-27T00:42:57;100377.09;;;2.78;100.00
67052;BME280;53957;47.222;18.670;2023-04-27T00:46:02;100377.31;;;2.65;100.00
67052;BME280;53957;47.222;18.670;2023-04-27T00:49:05;100375.63;;;2.82;100.00
67052;BME280;53957;47.222;18.670;2023-04-27T00:52:08;100377.09;;;2.78;100.00
67052;BME280;53957;47.222;18.670;2023-04-27T00:55:11;100369.22;;;2.78;100.00
67052;BME280;53957;47.222;18.670;2023-04-27T00:58:14;100376.06;;;2.67;100.00
67052;BME280;53957;47.222;18.670;2023-04-27T01:01:17;100382.47;;;2.71;100.00
67052;BME280;53957;47.222;18.670;2023-04-27T01:04:22;100387.28;;;2.74;100.00
67052;BME280;53957;47.222;18.670;2023-04-27T01:07:25;100384.25;;;2.59;100.00
67052;BME280;53957;47.222;18.670;2023-04-27T01:10:28;100374.62;;;2.41;100.00
67052;BME280;53957;47.222;18.670;2023-04-27T01:13:31;100375.09;;;2.19;100.00
67052;BME280;53957;47.222;18.670;2023-04-27T01:16:35;100383.06;;;2.31;100.00
67052;BME280;53957;47.222;18.670;2023-04-27T01:19:39;100387.44;;;2.49;100.00
67052;BME280;53957;47.222;18.670;2023-04-27T01:22:42;100388.94;;;2.45;100.00
67052;BME280;53957;47.222;18.670;2023-04-27T01:25:46;100389.06;;;2.50;100.00
67052;BME280;53957;47.222;18.670;2023-04-27T01:28:49;100393.75;;;2.48;100.00
67052;BME280;53957;47.222;18.670;2023-04-27T01:31:52;100384.97;;;2.54;100.00
67052;BME280;53957;47.222;18.670;2023-04-27T01:34:57;100397.97;;;2.92;100.00
67052;BME280;53957;47.222;18.670;2023-04-27T01:38:00;100385.63;;;3.04;100.00
67052;BME280;53957;47.222;18.670;2023-04-27T01:41:04;100390.53;;;3.00;100.00
67052;BME280;53957;47.222;18.670;2023-04-27T01:44:07;100392.16;;;3.13;100.00
67052;BME280;53957;47.222;18.670;2023-04-27T01:47:10;100391.91;;;3.15;100.00
67052;BME280;53957;47.222;18.670;2023-04-27T01:50:14;100396.06;;;3.22;100.00
67052;BME280;53957;47.222;18.670;2023-04-27T01:53:17;100400.75;;;3.20;100.00
67052;BME280;53957;47.222;18.670;2023-04-27T01:56:22;100400.63;;;3.27;100.00
67052;BME280;53957;47.222;18.670;2023-04-27T01:59:25;100400.41;;;3.17;100.00
67052;BME280;53957;47.222;18.670;2023-04-27T02:02:28;100410.03;;;3.35;100.00
67052;BME280;53957;47.222;18.670;2023-04-27T02:05:31;100407.94;;;2.89;100.00
67052;BME280;53957;47.222;18.670;2023-04-27T02:08:33;100409.87;;;2.82;100.00
67052;BME280;53957;47.222;18.670;2023-04-27T02:11:36;100413.81;;;2.61;100.00
67052;BME280;53957;47.222;18.670;2023-04-27T02:14:39;100408.06;;;2.52;100.00
67052;BME280;53957;47.222;18.670;2023-04-27T02:17:42;100410.66;;;2.40;100.00
67052;BME280;53957;47.222;18.670;2023-04-27T02:20:47;100406.94;;;2.30;100.00
67052;BME280;53957;47.222;18.670;2023-04-27T02:23:50;100411.50;;;2.22;100.00
67052;BME280;53957;47.222;18.670;2023-04-27T02:26:52;100422.06;;;2.34;100.00
67052;BME280;53957;47.222;18.670;2023-04-27T02:29:55;100417.47;;;2.30;100.00
67052;BME280;53957;47.222;18.670;2023-04-27T02:32:59;100425.22;;;2.24;100.00
67052;BME280;53957;47.222;18.670;2023-04-27T02:36:02;100425.25;;;2.06;100.00
67052;BME280;53957;47.222;18.670;2023-04-27T02:39:05;100433.28;;;2.11;100.00
67052;BME280;53957;47.222;18.670;2023-04-27T02:42:08;100425.84;;;1.89;100.00
67052;BME280;53957;47.222;18.670;2023-04-27T02:45:11;100421.03;;;1.86;100.00
67052;BME280;53957;47.222;18.670;2023-04-27T02:48:15;100419.22;;;1.87;100.00
67052;BME280;53957;47.222;18.670;2023-04-27T02:51:17;100420.13;;;1.74;100.00
67052;BME280;53957;47.222;18.670;2023-04-27T02:54:20;100423.97;;;1.78;100.00
67052;BME280;53957;47.222;18.670;2023-04-27T02:57:23;100419.97;;;1.50;100.00
67052;BME280;53957;47.222;18.670;2023-04-27T03:00:26;100432.97;;;1.45;100.00
67052;BME280;53957;47.222;18.670;2023-04-27T03:03:29;100430.19;;;1.40;100.00
67052;BME280;53957;47.222;18.670;2023-04-27T03:06:32;100437.59;;;1.24;100.00
67052;BME280;53957;47.222;18.670;2023-04-27T03:09:35;100432.44;;;1.11;100.00
67052;BME280;53957;47.222;18.670;2023-04-27T03:12:38;100434.97;;;1.24;100.00
67052;BME280;53957;47.222;18.670;2023-04-27T03:15:41;100437.69;;;1.11;100.00
67052;BME280;53957;47.222;18.670;2023-04-27T03:18:44;100433.09;;;1.06;100.00
67052;BME280;53957;47.222;18.670;2023-04-27T03:21:47;100441.28;;;1.17;100.00
67052;BME280;53957;47.222;18.670;2023-04-27T03:24:50;100444.97;;;0.84;100.00
67052;BME280;53957;47.222;18.670;2023-04-27T03:27:53;100447.72;;;0.95;100.00
67052;BME280;53957;47.222;18.670;2023-04-27T03:30:56;100442.78;;;0.74;100.00
67052;BME280;53957;47.222;18.670;2023-04-27T03:33:59;100455.62;;;0.89;100.00
67052;BME280;53957;47.222;18.670;2023-04-27T03:37:02;100456.06;;;0.86;100.00
67052;BME280;53957;47.222;18.670;2023-04-27T03:40:05;100458.63;;;0.92;100.00
67052;BME280;53957;47.222;18.670;2023-04-27T03:43:12;100463.66;;;1.01;100.00
67052;BME280;53957;47.222;18.670;2023-04-27T03:46:15;100467.28;;;1.00;100.00
67052;BME280;53957;47.222;18.670;2023-04-27T03:49:18;100464.91;;;0.91;100.00
67052;BME280;53957;47.222;18.670;2023-04-27T03:52:21;100474.94;;;1.01;100.00
67052;BME280;53957;47.222;18.670;2023-04-27T03:55:24;100475.31;;;1.05;100.00
67052;BME280;53957;47.222;18.670;2023-04-27T03:58:27;100485.72;;;1.25;100.00
67052;BME280;53957;47.222;18.670;2023-04-27T04:01:36;100480.25;;;0.94;100.00
67052;BME280;53957;47.222;18.670;2023-04-27T04:04:41;100484.87;;;1.24;100.00
67052;BME280;53957;47.222;18.670;2023-04-27T04:07:44;100480.69;;;1.42;100.00
67052;BME280;53957;47.222;18.670;2023-04-27T04:10:48;100488.44;;;1.37;100.00
67052;BME280;53957;47.222;18.670;2023-04-27T04:13:51;100482.97;;;1.64;100.00
67052;BME280;53957;47.222;18.670;2023-04-27T04:17:01;100483.34;;;1.86;100.00
67052;BME280;53957;47.222;18.670;2023-04-27T04:20:05;100495.63;;;1.92;100.00
67052;BME280;53957;47.222;18.670;2023-04-27T04:23:10;100493.66;;;2.06;100.00
67052;BME280;53957;47.222;18.670;2023-04-27T04:26:13;100493.16;;;2.34;100.00
67052;BME280;53957;47.222;18.670;2023-04-27T04:29:17;100493.94;;;2.84;100.00
67052;BME280;53957;47.222;18.670;2023-04-27T04:32:20;100502.22;;;3.53;100.00
67052;BME280;53957;47.222;18.670;2023-04-27T04:35:25;100504.84;;;3.65;99.86
67052;BME280;53957;47.222;18.670;2023-04-27T04:38:28;100504.59;;;4.26;93.82
67052;BME280;53957;47.222;18.670;2023-04-27T04:41:31;100511.87;;;3.60;97.85
67052;BME280;53957;47.222;18.670;2023-04-27T04:44:35;100513.31;;;4.27;97.07
67052;BME280;53957;47.222;18.670;2023-04-27T04:47:38;100528.13;;;4.28;91.05
67052;BME280;53957;47.222;18.670;2023-04-27T04:50:42;100523.19;;;4.60;91.91
67052;BME280;53957;47.222;18.670;2023-04-27T04:53:47;100526.78;;;4.54;94.89
67052;BME280;53957;47.222;18.670;2023-04-27T04:56:50;100533.09;;;5.11;91.50
67052;BME280;53957;47.222;18.670;2023-04-27T04:59:53;100534.38;;;6.10;84.32
67052;BME280;53957;47.222;18.670;2023-04-27T05:02:56;100538.25;;;6.03;81.66
67052;BME280;53957;47.222;18.670;2023-04-27T05:05:59;100540.94;;;7.24;80.11
67052;BME280;53957;47.222;18.670;2023-04-27T05:09:02;100539.69;;;5.93;83.17
67052;BME280;53957;47.222;18.670;2023-04-27T05:12:08;100542.97;;;7.82;76.60
67052;BME280;53957;47.222;18.670;2023-04-27T05:15:11;100543.81;;;6.68;77.48
67052;BME280;53957;47.222;18.670;2023-04-27T05:18:14;100549.25;;;8.13;77.05
67052;BME280;53957;47.222;18.670;2023-04-27T05:21:17;100553.88;;;9.38;71.03
67052;BME280;53957;47.222;18.670;2023-04-27T05:24:23;100553.09;;;9.38;67.37
67052;BME280;53957;47.222;18.670;2023-04-27T05:27:26;100560.53;;;9.41;64.89
67052;BME280;53957;47.222;18.670;2023-04-27T05:30:29;100561.34;;;9.57;64.93
67052;BME280;53957;47.222;18.670;2023-04-27T05:33:32;100570.13;;;9.73;66.12
67052;BME280;53957;47.222;18.670;2023-04-27T05:36:35;100568.59;;;10.58;63.70
67052;BME280;53957;47.222;18.670;2023-04-27T05:39:38;100560.50;;;11.18;56.79
67052;BME280;53957;47.222;18.670;2023-04-27T05:42:41;100566.41;;;11.15;54.85
67052;BME280;53957;47.222;18.670;2023-04-27T05:45:43;100573.09;;;10.68;57.78
67052;BME280;53957;47.222;18.670;2023-04-27T05:48:47;100572.50;;;11.60;54.88
67052;BME280;53957;47.222;18.670;2023-04-27T05:51:50;100578.84;;;11.99;55.20
67052;BME280;53957;47.222;18.670;2023-04-27T05:54:53;100576.09;;;11.75;52.17
67052;BME280;53957;47.222;18.670;2023-04-27T05:57:56;100567.81;;;11.42;53.97
67052;BME280;53957;47.222;18.670;2023-04-27T06:01:10;100582.03;;;10.98;59.28
67052;BME280;53957;47.222;18.670;2023-04-27T06:04:14;100579.56;;;11.75;56.38
67052;BME280;53957;47.222;18.670;2023-04-27T06:07:18;100580.81;;;12.37;54.63
67052;BME280;53957;47.222;18.670;2023-04-27T06:10:21;100586.00;;;12.28;51.04
67052;BME280;53957;47.222;18.670;2023-04-27T06:13:24;100586.44;;;12.11;52.57
67052;BME280;53957;47.222;18.670;2023-04-27T06:16:27;100586.34;;;13.27;51.08
67052;BME280;53957;47.222;18.670;2023-04-27T06:19:30;100594.50;;;13.36;50.81
67052;BME280;53957;47.222;18.670;2023-04-27T06:22:34;100586.56;;;13.64;50.97
67052;BME280;53957;47.222;18.670;2023-04-27T06:25:38;100595.25;;;13.75;48.06
67052;BME280;53957;47.222;18.670;2023-04-27T06:28:42;100586.59;;;13.78;47.51
67052;BME280;53957;47.222;18.670;2023-04-27T06:31:45;100603.34;;;14.16;46.81
67052;BME280;53957;47.222;18.670;2023-04-27T06:34:51;100596.03;;;14.36;47.58
67052;BME280;53957;47.222;18.670;2023-04-27T06:37:54;100586.63;;;14.89;44.92
67052;BME280;53957;47.222;18.670;2023-04-27T06:41:00;100593.81;;;14.66;45.09
67052;BME280;53957;47.222;18.670;2023-04-27T06:44:04;100589.25;;;15.40;43.83
67052;BME280;53957;47.222;18.670;2023-04-27T06:47:07;100589.25;;;15.40;43.74
67052;BME280;53957;47.222;18.670;2023-04-27T06:50:10;100599.69;;;15.05;43.80
67052;BME280;53957;47.222;18.670;2023-04-27T06:53:13;100595.28;;;15.68;42.05
67052;BME280;53957;47.222;18.670;2023-04-27T06:56:16;100594.44;;;17.15;40.28
67052;BME280;53957;47.222;18.670;2023-04-27T06:59:19;100603.69;;;16.38;40.57
67052;BME280;53957;47.222;18.670;2023-04-27T07:02:23;100611.88;;;15.93;40.38
67052;BME280;53957;47.222;18.670;2023-04-27T07:05:27;100608.56;;;16.94;38.41
67052;BME280;53957;47.222;18.670;2023-04-27T07:08:30;100599.69;;;17.20;36.09
67052;BME280;53957;47.222;18.670;2023-04-27T07:11:33;100608.12;;;16.52;38.44
67052;BME280;53957;47.222;18.670;2023-04-27T07:14:36;100603.09;;;17.73;34.20
67052;BME280;53957;47.222;18.670;2023-04-27T07:17:39;100607.91;;;17.06;35.33
67052;BME280;53957;47.222;18.670;2023-04-27T07:20:43;100608.69;;;17.42;34.21
67052;BME280;53957;47.222;18.670;2023-04-27T07:23:46;100598.69;;;16.72;34.27
67052;BME280;53957;47.222;18.670;2023-04-27T07:26:48;100610.63;;;17.32;32.76
67052;BME280;53957;47.222;18.670;2023-04-27T07:29:52;100614.41;;;17.49;33.76
67052;BME280;53957;47.222;18.670;2023-04-27T07:32:55;100618.44;;;16.50;35.27
67052;BME280;53957;47.222;18.670;2023-04-27T07:36:00;100607.31;;;16.42;33.75
67052;BME280;53957;47.222;18.670;2023-04-27T07:39:04;100618.88;;;17.10;30.54
67052;BME280;53957;47.222;18.670;2023-04-27T07:42:08;100610.88;;;16.69;32.05
67052;BME280;53957;47.222;18.670;2023-04-27T07:45:11;100616.47;;;15.70;33.75
67052;BME280;53957;47.222;18.670;2023-04-27T07:48:14;100613.25;;;16.22;31.69
67052;BME280;53957;47.222;18.670;2023-04-27T07:51:17;100614.81;;;16.54;33.38
67052;BME280;53957;47.222;18.670;2023-04-27T07:54:20;100617.28;;;16.42;32.29
67052;BME280;53957;47.222;18.670;2023-04-27T07:57:23;100614.00;;;16.54;33.20
67052;BME280;53957;47.222;18.670;2023-04-27T08:00:26;100614.19;;;16.17;35.11
67052;BME280;53957;47.222;18.670;2023-04-27T08:03:29;100622.09;;;16.63;33.89
67052;BME280;53957;47.222;18.670;2023-04-27T08:06:33;100621.34;;;16.22;32.98
67052;BME280;53957;47.222;18.670;2023-04-27T08:09:37;100619.56;;;16.66;32.49
67052;BME280;53957;47.222;18.670;2023-04-27T08:12:40;100622.53;;;16.38;35.06
67052;BME280;53957;47.222;18.670;2023-04-27T08:15:43;100623.06;;;15.86;33.99
67052;BME280;53957;47.222;18.670;2023-04-27T08:18:48;100622.56;;;16.47;33.95
67052;BME280;53957;47.222;18.670;2023-04-27T08:21:51;100623.66;;;15.60;37.30
67052;BME280;53957;47.222;18.670;2023-04-27T08:24:54;100620.56;;;15.67;36.86
67052;BME280;53957;47.222;18.670;2023-04-27T08:27:57;100628.19;;;15.97;35.65
67052;BME280;53957;47.222;18.670;2023-04-27T08:30:59;100618.69;;;16.39;36.64
67052;BME280;53957;47.222;18.670;2023-04-27T08:34:03;100620.94;;;15.29;36.07
67052;BME280;53957;47.222;18.670;2023-04-27T08:37:06;100625.56;;;16.05;37.05
67052;BME280;53957;47.222;18.670;2023-04-27T08:40:10;100618.78;;;16.17;35.38
67052;BME280;53957;47.222;18.670;2023-04-27T08:43:13;100617.09;;;16.30;35.18
67052;BME280;53957;47.222;18.670;2023-04-27T08:46:20;100624.84;;;15.91;31.28
67052;BME280;53957;47.222;18.670;2023-04-27T08:49:23;100615.12;;;16.13;33.92
67052;BME280;53957;47.222;18.670;2023-04-27T08:52:27;100619.41;;;16.63;29.22
67052;BME280;53957;47.222;18.670;2023-04-27T08:55:31;100616.50;;;15.47;37.31
67052;BME280;53957;47.222;18.670;2023-04-27T08:58:35;100611.06;;;16.24;35.22
67052;BME280;53957;47.222;18.670;2023-04-27T09:01:42;100606.28;;;16.70;36.10
67052;BME280;53957;47.222;18.670;2023-04-27T09:04:46;100597.84;;;16.05;34.54
67052;BME280;53957;47.222;18.670;2023-04-27T09:10:59;100603.81;;;16.33;32.76
67052;BME280;53957;47.222;18.670;2023-04-27T09:14:20;100605.44;;;16.52;35.80
67052;BME280;53957;47.222;18.670;2023-04-27T09:17:25;100604.78;;;16.37;33.85
67052;BME280;53957;47.222;18.670;2023-04-27T09:20:29;100594.22;;;16.67;30.35
67052;BME280;53957;47.222;18.670;2023-04-27T09:23:34;100589.97;;;16.84;31.62
67052;BME280;53957;47.222;18.670;2023-04-27T09:26:38;100602.25;;;15.69;35.99
67052;BME280;53957;47.222;18.670;2023-04-27T09:29:41;100584.88;;;16.56;33.79
67052;BME280;53957;47.222;18.670;2023-04-27T09:32:57;100581.97;;;16.35;32.36
67052;BME280;53957;47.222;18.670;2023-04-27T09:36:03;100581.94;;;17.01;31.29
67052;BME280;53957;47.222;18.670;2023-04-27T09:39:06;100589.22;;;17.01;33.50
67052;BME280;53957;47.222;18.670;2023-04-27T09:42:11;100584.88;;;16.07;35.29
67052;BME280;53957;47.222;18.670;2023-04-27T09:45:15;100584.88;;;14.71;36.84
67052;BME280;53957;47.222;18.670;2023-04-27T09:48:20;100585.81;;;16.60;34.28
67052;BME280;53957;47.222;18.670;2023-04-27T09:51:23;100579.91;;;16.40;34.88
67052;BME280;53957;47.222;18.670;2023-04-27T09:54:28;100575.47;;;16.36;31.77
67052;BME280;53957;47.222;18.670;2023-04-27T10:01:06;100585.22;;;14.92;37.65
67052;BME280;53957;47.222;18.670;2023-04-27T10:07:32;100570.66;;;17.34;30.00
67052;BME280;53957;47.222;18.670;2023-04-27T10:10:47;100566.91;;;16.25;34.95
67052;BME280;53957;47.222;18.670;2023-04-27T10:13:51;100571.81;;;15.14;35.99
67052;BME280;53957;47.222;18.670;2023-04-27T10:16:57;100565.19;;;14.47;37.48
67052;BME280;53957;47.222;18.670;2023-04-27T10:20:02;100569.88;;;15.06;35.24
67052;BME280;53957;47.222;18.670;2023-04-27T10:23:06;100561.50;;;16.16;34.49
67052;BME280;53957;47.222;18.670;2023-04-27T10:26:09;100564.56;;;16.32;37.31
67052;BME280;53957;47.222;18.670;2023-04-27T10:29:12;100558.31;;;17.16;35.88
67052;BME280;53957;47.222;18.670;2023-04-27T10:32:25;100557.66;;;17.36;31.61
67052;BME280;53957;47.222;18.670;2023-04-27T10:35:55;100547.28;;;15.30;35.61
67052;BME280;53957;47.222;18.670;2023-04-27T10:38:59;100548.63;;;16.04;34.98
67052;BME280;53957;47.222;18.670;2023-04-27T10:42:03;100555.84;;;15.64;34.81
67052;BME280;53957;47.222;18.670;2023-04-27T10:45:07;100552.53;;;15.12;36.81
67052;BME280;53957;47.222;18.670;2023-04-27T10:48:13;100567.53;;;14.91;35.41
67052;BME280;53957;47.222;18.670;2023-04-27T10:51:19;100556.59;;;15.10;37.05
67052;BME280;53957;47.222;18.670;2023-04-27T10:54:25;100563.56;;;16.19;36.61
67052;BME280;53957;47.222;18.670;2023-04-27T10:57:28;100553.62;;;16.37;35.09
67052;BME280;53957;47.222;18.670;2023-04-27T11:00:37;100550.56;;;16.13;33.13
67052;BME280;53957;47.222;18.670;2023-04-27T11:03:40;100560.22;;;15.28;37.01
67052;BME280;53957;47.222;18.670;2023-04-27T11:06:44;100553.31;;;15.90;36.14
67052;BME280;53957;47.222;18.670;2023-04-27T11:09:49;100560.16;;;16.80;33.73
67052;BME280;53957;47.222;18.670;2023-04-27T11:12:53;100557.72;;;16.26;33.73
67052;BME280;53957;47.222;18.670;2023-04-27T11:15:57;100554.50;;;16.82;32.33
67052;BME280;53957;47.222;18.670;2023-04-27T11:19:04;100560.28;;;14.77;34.76
67052;BME280;53957;47.222;18.670;2023-04-27T11:22:10;100557.84;;;14.67;37.00
67052;BME280;53957;47.222;18.670;2023-04-27T11:25:13;100538.66;;;15.73;34.23
67052;BME280;53957;47.222;18.670;2023-04-27T11:28:17;100557.72;;;16.26;36.00
67052;BME280;53957;47.222;18.670;2023-04-27T11:31:21;100555.37;;;15.16;36.52
67052;BME280;53957;47.222;18.670;2023-04-27T11:34:24;100552.94;;;15.51;36.85
67052;BME280;53957;47.222;18.670;2023-04-27T11:37:28;100556.72;;;16.13;35.66
67052;BME280;53957;47.222;18.670;2023-04-27T11:40:31;100549.34;;;16.28;36.88
67052;BME280;53957;47.222;18.670;2023-04-27T11:43:40;100544.78;;;15.88;35.58
67052;BME280;53957;47.222;18.670;2023-04-27T11:46:43;100534.31;;;15.86;36.10
67052;BME280;53957;47.222;18.670;2023-04-27T11:49:56;100545.06;;;16.26;34.41
67052;BME280;53957;47.222;18.670;2023-04-27T11:52:59;100538.84;;;16.17;33.25
67052;BME280;53957;47.222;18.670;2023-04-27T11:56:04;100539.03;;;16.30;31.91
67052;BME280;53957;47.222;18.670;2023-04-27T11:59:21;100542.28;;;15.37;34.61
67052;BME280;53957;47.222;18.670;2023-04-27T12:02:26;100541.31;;;15.42;34.11
67052;BME280;53957;47.222;18.670;2023-04-27T12:05:29;100538.81;;;16.08;33.99
67052;BME280;53957;47.222;18.670;2023-04-27T12:08:32;100541.03;;;16.06;35.67
67052;BME280;53957;47.222;18.670;2023-04-27T12:11:35;100543.94;;;16.19;35.27
67052;BME280;53957;47.222;18.670;2023-04-27T12:14:39;100534.63;;;16.42;35.24
67052;BME280;53957;47.222;18.670;2023-04-27T12:17:42;100541.44;;;16.31;35.32
67052;BME280;53957;47.222;18.670;2023-04-27T12:20:45;100534.69;;;15.71;34.99
67052;BME280;53957;47.222;18.670;2023-04-27T12:23:48;100528.03;;;15.68;34.51
67052;BME280;53957;47.222;18.670;2023-04-27T12:26:51;100524.13;;;16.15;33.19
67052;BME280;53957;47.222;18.670;2023-04-27T12:29:54;100527.41;;;15.94;34.86
67052;BME280;53957;47.222;18.670;2023-04-27T12:32:57;100525.37;;;15.45;35.58
67052;BME280;53957;47.222;18.670;2023-04-27T12:36:06;100521.87;;;15.36;34.51
67052;BME280;53957;47.222;18.670;2023-04-27T12:39:14;100525.06;;;15.78;36.57
67052;BME280;53957;47.222;18.670;2023-04-27T12:42:18;100517.59;;;15.35;34.87
67052;BME280;53957;47.222;18.670;2023-04-27T12:45:25;100518.78;;;14.33;36.90
67052;BME280;53957;47.222;18.670;2023-04-27T12:48:28;100528.63;;;15.11;35.90
67052;BME280;53957;47.222;18.670;2023-04-27T12:51:31;100519.81;;;14.88;36.09
67052;BME280;53957;47.222;18.670;2023-04-27T12:54:36;100523.97;;;14.94;35.01
67052;BME280;53957;47.222;18.670;2023-04-27T12:57:38;100527.88;;;14.60;36.01
67052;BME280;53957;47.222;18.670;2023-04-27T13:00:41;100526.44;;;14.40;38.59
67052;BME280;53957;47.222;18.670;2023-04-27T13:03:46;100525.69;;;14.11;37.18
67052;BME280;53957;47.222;18.670;2023-04-27T13:06:50;100524.69;;;14.21;38.31
67052;BME280;53957;47.222;18.670;2023-04-27T13:09:52;100528.81;;;14.41;38.54
67052;BME280;53957;47.222;18.670;2023-04-27T13:12:55;100529.69;;;14.64;36.92
67052;BME280;53957;47.222;18.670;2023-04-27T13:15:58;100533.09;;;14.42;38.75
67052;BME280;53957;47.222;18.670;2023-04-27T13:19:01;100526.09;;;14.69;34.84
67052;BME280;53957;47.222;18.670;2023-04-27T13:22:05;100532.81;;;14.30;36.97
67052;BME280;53957;47.222;18.670;2023-04-27T13:25:11;100529.22;;;14.48;38.70
67052;BME280;53957;47.222;18.670;2023-04-27T13:28:14;100528.94;;;13.94;38.75
67052;BME280;53957;47.222;18.670;2023-04-27T13:31:17;100526.62;;;13.88;37.92
67052;BME280;53957;47.222;18.670;2023-04-27T13:34:20;100529.44;;;14.10;38.69
67052;BME280;53957;47.222;18.670;2023-04-27T13:37:23;100527.25;;;14.26;35.90
67052;BME280;53957;47.222;18.670;2023-04-27T13:40:27;100518.47;;;14.48;36.87
67052;BME280;53957;47.222;18.670;2023-04-27T13:43:31;100516.00;;;15.11;38.12
67052;BME280;53957;47.222;18.670;2023-04-27T13:46:34;100520.72;;;15.60;35.38
67052;BME280;53957;47.222;18.670;2023-04-27T13:49:37;100508.56;;;15.62;32.84
67052;BME280;53957;47.222;18.670;2023-04-27T13:52:40;100515.22;;;15.97;33.19
67052;BME280;53957;47.222;18.670;2023-04-27T13:55:44;100510.97;;;15.73;35.73
67052;BME280;53957;47.222;18.670;2023-04-27T13:58:47;100514.28;;;15.16;36.96
67052;BME280;53957;47.222;18.670;2023-04-27T14:01:50;100519.63;;;14.70;35.08
67052;BME280;53957;47.222;18.670;2023-04-27T14:04:53;100514.25;;;15.38;35.60
67052;BME280;53957;47.222;18.670;2023-04-27T14:07:56;100519.91;;;15.28;36.43
67052;BME280;53957;47.222;18.670;2023-04-27T14:10:59;100518.94;;;15.01;36.04
67052;BME280;53957;47.222;18.670;2023-04-27T14:14:02;100522.56;;;14.82;36.79
67052;BME280;53957;47.222;18.670;2023-04-27T14:17:05;100523.22;;;15.25;39.20
67052;BME280;53957;47.222;18.670;2023-04-27T14:20:08;100524.53;;;15.68;32.76
67052;BME280;53957;47.222;18.670;2023-04-27T14:23:12;100526.59;;;15.93;31.74
67052;BME280;53957;47.222;18.670;2023-04-27T14:26:14;100526.25;;;15.95;34.19
67052;BME280;53957;47.222;18.670;2023-04-27T14:29:17;100526.44;;;15.67;36.30
67052;BME280;53957;47.222;18.670;2023-04-27T14:32:21;100516.97;;;15.16;35.01
67052;BME280;53957;47.222;18.670;2023-04-27T14:35:24;100524.06;;;15.11;35.37
67052;BME280;53957;47.222;18.670;2023-04-27T14:38:27;100524.16;;;15.52;37.86
67052;BME280;53957;47.222;18.670;2023-04-27T14:41:31;100524.06;;;15.34;37.77
67052;BME280;53957;47.222;18.670;2023-04-27T14:44:33;100533.16;;;15.02;35.22
67052;BME280;53957;47.222;18.670;2023-04-27T14:47:38;100527.72;;;14.93;35.38
67052;BME280;53957;47.222;18.670;2023-04-27T14:50:41;100525.16;;;14.88;35.28
67052;BME280;53957;47.222;18.670;2023-04-27T14:53:54;100518.22;;;14.87;35.30
67052;BME280;53957;47.222;18.670;2023-04-27T14:56:59;100538.22;;;14.80;37.05
67052;BME280;53957;47.222;18.670;2023-04-27T15:00:03;100538.25;;;14.53;35.99
67052;BME280;53957;47.222;18.670;2023-04-27T15:03:11;100533.78;;;14.06;38.02
67052;BME280;53957;47.222;18.670;2023-04-27T15:06:14;100541.34;;;14.46;37.00
67052;BME280;53957;47.222;18.670;2023-04-27T15:09:18;100538.16;;;14.44;35.00
67052;BME280;53957;47.222;18.670;2023-04-27T15:12:21;100527.00;;;14.50;36.09
67052;BME280;53957;47.222;18.670;2023-04-27T15:15:24;100531.38;;;14.74;36.12
67052;BME280;53957;47.222;18.670;2023-04-27T15:18:27;100528.31;;;14.67;34.15
67052;BME280;53957;47.222;18.670;2023-04-27T15:21:30;100529.22;;;14.34;38.23
67052;BME280;53957;47.222;18.670;2023-04-27T15:24:34;100524.63;;;14.49;37.04
67052;BME280;53957;47.222;18.670;2023-04-27T15:27:37;100530.41;;;14.42;36.65
67052;BME280;53957;47.222;18.670;2023-04-27T15:30:41;100530.38;;;14.56;35.92
67052;BME280;53957;47.222;18.670;2023-04-27T15:33:44;100528.72;;;14.18;36.63
67052;BME280;53957;47.222;18.670;2023-04-27T15:36:47;100523.97;;;14.15;35.25
67052;BME280;53957;47.222;18.670;2023-04-27T15:39:50;100525.78;;;14.20;36.21
67052;BME280;53957;47.222;18.670;2023-04-27T15:42:53;100535.37;;;14.35;36.76
67052;BME280;53957;47.222;18.670;2023-04-27T15:45:56;100530.22;;;13.97;38.25
67052;BME280;53957;47.222;18.670;2023-04-27T15:48:59;100526.44;;;13.70;36.77
67052;BME280;53957;47.222;18.670;2023-04-27T15:52:03;100519.47;;;13.69;37.51
67052;BME280;53957;47.222;18.670;2023-04-27T15:55:07;100523.69;;;13.89;39.01
67052;BME280;53957;47.222;18.670;2023-04-27T15:58:10;100523.69;;;14.03;37.62